DAL2855 KSLC-KCLE
Flight info
| Callsign | DAL2855 |
|---|---|
| Flight time | 3h 10m |
| Altitude | 37000 |
| Route | RUGGD3 PERTY CHE GLL MCK LMN GIJ BENJO BRWNZ4 |
| Aircraft | A319/M-SDE3FGHIRWY/LB1 |
Departure
| Time | 2026-05-04 18:58 |
|---|---|
| Airport | Salt Lake City International Airport (KSLC) |
Arrival
| Time | 2026-05-04 22:09 |
|---|---|
| Airport | Cleveland Hopkins International Airport (KCLE) |
| Time | Latitude | Longitude | Altitude | Speed | Heading |
|---|---|---|---|---|---|
| 2026-05-04 18:15 | 40.78966 | -111.98366 | 4231 ft | 0 kts | 175° |
| 2026-05-04 18:44 | 40.78977 | -111.98368 | 4231 ft | 4 kts | 178° |
| 2026-05-04 18:44 | 40.79013 | -111.98366 | 4231 ft | 4 kts | 192° |
| 2026-05-04 18:44 | 40.79038 | -111.98355 | 4231 ft | 4 kts | 216° |
| 2026-05-04 18:45 | 40.79051 | -111.98333 | 4231 ft | 1 kts | 265° |
| 2026-05-04 18:45 | 40.79051 | -111.98332 | 4231 ft | 0 kts | 265° |
| 2026-05-04 18:49 | 40.79050 | -111.98343 | 4231 ft | 2 kts | 265° |
| 2026-05-04 18:49 | 40.79047 | -111.98393 | 4231 ft | 7 kts | 265° |
| 2026-05-04 18:49 | 40.79043 | -111.98457 | 4231 ft | 7 kts | 265° |
| 2026-05-04 18:50 | 40.79038 | -111.98529 | 4231 ft | 9 kts | 265° |
| 2026-05-04 18:50 | 40.79050 | -111.98611 | 4231 ft | 10 kts | 319° |
| 2026-05-04 18:50 | 40.79124 | -111.98621 | 4231 ft | 12 kts | 356° |
| 2026-05-04 18:50 | 40.79208 | -111.98638 | 4231 ft | 13 kts | 329° |
| 2026-05-04 18:51 | 40.79216 | -111.98752 | 4231 ft | 14 kts | 265° |
| 2026-05-04 18:51 | 40.79207 | -111.98885 | 4231 ft | 15 kts | 265° |
| 2026-05-04 18:51 | 40.79197 | -111.99031 | 4231 ft | 17 kts | 265° |
| 2026-05-04 18:51 | 40.79186 | -111.99192 | 4231 ft | 18 kts | 265° |
| 2026-05-04 18:52 | 40.79174 | -111.99360 | 4231 ft | 18 kts | 265° |
| 2026-05-04 18:52 | 40.79179 | -111.99512 | 4231 ft | 16 kts | 308° |
| 2026-05-04 18:52 | 40.79285 | -111.99539 | 4231 ft | 15 kts | 355° |
| 2026-05-04 18:52 | 40.79390 | -111.99551 | 4231 ft | 15 kts | 355° |
| 2026-05-04 18:53 | 40.79490 | -111.99562 | 4231 ft | 14 kts | 355° |
| 2026-05-04 18:53 | 40.79585 | -111.99573 | 4231 ft | 13 kts | 355° |
| 2026-05-04 18:53 | 40.79675 | -111.99583 | 4231 ft | 13 kts | 355° |
| 2026-05-04 18:53 | 40.79760 | -111.99593 | 4231 ft | 12 kts | 355° |
| 2026-05-04 18:54 | 40.79840 | -111.99602 | 4231 ft | 11 kts | 355° |
| 2026-05-04 18:54 | 40.79916 | -111.99611 | 4231 ft | 11 kts | 354° |
| 2026-05-04 18:54 | 40.79988 | -111.99620 | 4231 ft | 10 kts | 354° |
| 2026-05-04 18:54 | 40.80058 | -111.99628 | 4232 ft | 11 kts | 355° |
| 2026-05-04 18:55 | 40.80137 | -111.99638 | 4232 ft | 13 kts | 355° |
| 2026-05-04 18:55 | 40.80356 | -111.99663 | 4232 ft | 19 kts | 355° |
| 2026-05-04 18:55 | 40.80494 | -111.99679 | 4231 ft | 20 kts | 355° |
| 2026-05-04 18:56 | 40.80631 | -111.99696 | 4231 ft | 20 kts | 355° |
| 2026-05-04 18:56 | 40.80698 | -111.99770 | 4231 ft | 14 kts | 266° |
| 2026-05-04 18:56 | 40.80690 | -111.99892 | 4231 ft | 12 kts | 265° |
| 2026-05-04 18:56 | 40.80663 | -111.99920 | 4230 ft | 0 kts | 174° |
| 2026-05-04 18:57 | 40.80620 | -111.99915 | 4231 ft | 30 kts | 175° |
| 2026-05-04 18:58 | 40.80165 | -111.99862 | 4232 ft | 98 kts | 175° |
| 2026-05-04 18:58 | 40.79286 | -111.99758 | 4235 ft | 153 kts | 175° |
| 2026-05-04 18:58 | 40.78176 | -111.99597 | 4648 ft | 164 kts | 174° |
| 2026-05-04 18:58 | 40.77024 | -111.99379 | 5251 ft | 169 kts | 172° |
| 2026-05-04 18:59 | 40.75844 | -111.99143 | 5926 ft | 173 kts | 173° |
| 2026-05-04 18:59 | 40.74598 | -111.99140 | 6123 ft | 191 kts | 199° |
| 2026-05-04 18:59 | 40.73509 | -112.00230 | 6303 ft | 210 kts | 236° |
| 2026-05-04 18:59 | 40.73076 | -112.02158 | 6422 ft | 238 kts | 269° |
| 2026-05-04 19:00 | 40.73557 | -112.04354 | 6618 ft | 266 kts | 300° |
| 2026-05-04 19:00 | 40.74920 | -112.06127 | 6943 ft | 287 kts | 328° |
| 2026-05-04 19:00 | 40.76843 | -112.06932 | 7535 ft | 295 kts | 353° |
| 2026-05-04 19:00 | 40.78885 | -112.06759 | 8500 ft | 295 kts | 6° |
| 2026-05-04 19:01 | 40.80922 | -112.06371 | 9405 ft | 297 kts | 7° |
| 2026-05-04 19:01 | 40.82975 | -112.05969 | 10178 ft | 302 kts | 7° |
| 2026-05-04 19:01 | 40.85143 | -112.05543 | 10441 ft | 326 kts | 7° |
| 2026-05-04 19:01 | 40.87464 | -112.05089 | 10728 ft | 347 kts | 7° |
| 2026-05-04 19:02 | 40.89849 | -112.04620 | 11323 ft | 354 kts | 7° |
| 2026-05-04 19:02 | 40.92292 | -112.04137 | 12062 ft | 356 kts | 7° |
| 2026-05-04 19:02 | 40.94758 | -112.03648 | 12812 ft | 359 kts | 8° |
| 2026-05-04 19:02 | 40.97237 | -112.03158 | 13610 ft | 361 kts | 8° |
| 2026-05-04 19:03 | 40.99728 | -112.02637 | 14296 ft | 364 kts | 12° |
| 2026-05-04 19:03 | 41.02133 | -112.01564 | 14935 ft | 368 kts | 26° |
| 2026-05-04 19:03 | 41.04303 | -111.99755 | 15574 ft | 371 kts | 39° |
| 2026-05-04 19:03 | 41.05571 | -111.98158 | 15997 ft | 374 kts | 49° |
| 2026-05-04 19:04 | 41.07056 | -111.95327 | 16616 ft | 377 kts | 63° |
| 2026-05-04 19:04 | 41.08176 | -111.92166 | 17245 ft | 380 kts | 65° |
| 2026-05-04 19:04 | 41.09272 | -111.89010 | 17871 ft | 384 kts | 65° |
| 2026-05-04 19:04 | 41.10395 | -111.85785 | 18455 ft | 387 kts | 65° |
| 2026-05-04 19:05 | 41.11272 | -111.82392 | 18952 ft | 391 kts | 78° |
| 2026-05-04 19:05 | 41.11542 | -111.78792 | 19427 ft | 396 kts | 91° |
| 2026-05-04 19:05 | 41.11175 | -111.75174 | 19936 ft | 399 kts | 105° |
| 2026-05-04 19:05 | 41.10185 | -111.71740 | 20457 ft | 402 kts | 119° |
| 2026-05-04 19:06 | 41.08611 | -111.68663 | 20935 ft | 405 kts | 130° |
| 2026-05-04 19:06 | 41.06815 | -111.65761 | 21467 ft | 408 kts | 130° |
| 2026-05-04 19:06 | 41.05013 | -111.62838 | 21990 ft | 411 kts | 130° |
| 2026-05-04 19:06 | 41.03199 | -111.59888 | 22498 ft | 414 kts | 130° |
| 2026-05-04 19:07 | 41.01369 | -111.56908 | 22922 ft | 419 kts | 130° |
| 2026-05-04 19:07 | 40.99524 | -111.53904 | 23396 ft | 422 kts | 130° |
| 2026-05-04 19:07 | 40.97663 | -111.50880 | 23787 ft | 425 kts | 130° |
| 2026-05-04 19:07 | 40.95785 | -111.47836 | 24183 ft | 428 kts | 130° |
| 2026-05-04 19:08 | 40.93908 | -111.44792 | 24651 ft | 428 kts | 129° |
| 2026-05-04 19:08 | 40.92240 | -111.41522 | 25054 ft | 431 kts | 120° |
| 2026-05-04 19:08 | 40.91007 | -111.37907 | 25440 ft | 435 kts | 110° |
| 2026-05-04 19:08 | 40.90245 | -111.34022 | 25817 ft | 438 kts | 100° |
| 2026-05-04 19:09 | 40.89777 | -111.30024 | 26172 ft | 442 kts | 99° |
| 2026-05-04 19:09 | 40.89305 | -111.26004 | 26528 ft | 445 kts | 99° |
| 2026-05-04 19:09 | 40.88824 | -111.21950 | 26877 ft | 448 kts | 99° |
| 2026-05-04 19:09 | 40.88339 | -111.17871 | 27215 ft | 451 kts | 99° |
| 2026-05-04 19:10 | 40.87851 | -111.13761 | 27566 ft | 455 kts | 100° |
| 2026-05-04 19:10 | 40.87357 | -111.09620 | 27923 ft | 457 kts | 100° |
| 2026-05-04 19:10 | 40.86859 | -111.05453 | 28220 ft | 461 kts | 100° |
| 2026-05-04 19:10 | 40.86356 | -111.01258 | 28538 ft | 464 kts | 100° |
| 2026-05-04 19:11 | 40.85847 | -110.97044 | 28896 ft | 466 kts | 100° |
| 2026-05-04 19:11 | 40.85334 | -110.92807 | 29211 ft | 468 kts | 100° |
| 2026-05-04 19:11 | 40.84816 | -110.88554 | 29491 ft | 471 kts | 100° |
| 2026-05-04 19:11 | 40.84298 | -110.84328 | 29820 ft | 473 kts | 100° |
| 2026-05-04 19:12 | 40.83771 | -110.80030 | 30108 ft | 475 kts | 100° |
| 2026-05-04 19:12 | 40.82702 | -110.71345 | 30515 ft | 483 kts | 100° |
| 2026-05-04 19:12 | 40.82162 | -110.66958 | 30749 ft | 485 kts | 100° |
| 2026-05-04 19:13 | 40.81619 | -110.62557 | 31033 ft | 487 kts | 101° |
| 2026-05-04 19:13 | 40.81072 | -110.58139 | 31276 ft | 488 kts | 101° |
| 2026-05-04 19:13 | 40.80519 | -110.53698 | 31529 ft | 491 kts | 101° |
| 2026-05-04 19:13 | 40.79963 | -110.49246 | 31773 ft | 493 kts | 101° |
| 2026-05-04 19:14 | 40.79402 | -110.44781 | 32027 ft | 495 kts | 101° |
| 2026-05-04 19:14 | 40.78836 | -110.40286 | 32240 ft | 498 kts | 101° |
| 2026-05-04 19:14 | 40.78263 | -110.35774 | 32472 ft | 500 kts | 101° |
| 2026-05-04 19:14 | 40.77688 | -110.31232 | 32635 ft | 504 kts | 102° |
| 2026-05-04 19:15 | 40.77103 | -110.26652 | 32786 ft | 508 kts | 102° |
| 2026-05-04 19:15 | 40.76514 | -110.22045 | 33004 ft | 511 kts | 102° |
| 2026-05-04 19:15 | 40.75922 | -110.17412 | 33254 ft | 513 kts | 102° |
| 2026-05-04 19:15 | 40.75328 | -110.12766 | 33582 ft | 514 kts | 102° |
| 2026-05-04 19:16 | 40.74730 | -110.08118 | 33840 ft | 516 kts | 102° |
| 2026-05-04 19:16 | 40.74139 | -110.03443 | 34070 ft | 518 kts | 101° |
| 2026-05-04 19:16 | 40.73664 | -109.98731 | 34319 ft | 519 kts | 98° |
| 2026-05-04 19:16 | 40.73316 | -109.93984 | 34606 ft | 520 kts | 96° |
| 2026-05-04 19:17 | 40.73047 | -109.89220 | 34827 ft | 521 kts | 96° |
| 2026-05-04 19:17 | 40.72804 | -109.84447 | 35070 ft | 522 kts | 96° |
| 2026-05-04 19:17 | 40.72544 | -109.79679 | 35270 ft | 522 kts | 96° |
| 2026-05-04 19:17 | 40.72247 | -109.74909 | 35484 ft | 522 kts | 97° |
| 2026-05-04 19:18 | 40.71916 | -109.70138 | 35734 ft | 522 kts | 97° |
| 2026-05-04 19:18 | 40.71562 | -109.65383 | 35986 ft | 522 kts | 98° |
| 2026-05-04 19:18 | 40.71195 | -109.60620 | 36258 ft | 522 kts | 98° |
| 2026-05-04 19:18 | 40.70824 | -109.55865 | 36430 ft | 523 kts | 98° |
| 2026-05-04 19:19 | 40.70453 | -109.51082 | 36564 ft | 525 kts | 98° |
| 2026-05-04 19:19 | 40.70087 | -109.46299 | 36728 ft | 526 kts | 98° |
| 2026-05-04 19:19 | 40.69728 | -109.41492 | 36838 ft | 527 kts | 98° |
| 2026-05-04 19:20 | 40.69021 | -109.31921 | 36836 ft | 528 kts | 98° |
| 2026-05-04 19:20 | 40.68295 | -109.22233 | 36821 ft | 528 kts | 98° |
| 2026-05-04 19:21 | 40.67563 | -109.12680 | 36810 ft | 528 kts | 98° |
| 2026-05-04 19:21 | 40.66816 | -109.03064 | 36822 ft | 528 kts | 98° |
| 2026-05-04 19:22 | 40.66057 | -108.93434 | 36831 ft | 528 kts | 98° |
| 2026-05-04 19:22 | 40.65294 | -108.83818 | 36827 ft | 528 kts | 98° |
| 2026-05-04 19:23 | 40.64519 | -108.74202 | 36812 ft | 528 kts | 98° |
| 2026-05-04 19:23 | 40.63737 | -108.64576 | 36825 ft | 529 kts | 98° |
| 2026-05-04 19:24 | 40.62950 | -108.54940 | 36827 ft | 529 kts | 98° |
| 2026-05-04 19:24 | 40.62151 | -108.45307 | 36834 ft | 529 kts | 98° |
| 2026-05-04 19:25 | 40.61350 | -108.35663 | 36845 ft | 530 kts | 98° |
| 2026-05-04 19:25 | 40.60541 | -108.26068 | 36834 ft | 531 kts | 98° |
| 2026-05-04 19:26 | 40.59715 | -108.16414 | 36836 ft | 531 kts | 98° |
| 2026-05-04 19:26 | 40.58881 | -108.06743 | 36845 ft | 532 kts | 98° |
| 2026-05-04 19:27 | 40.58035 | -107.97077 | 36855 ft | 532 kts | 99° |
| 2026-05-04 19:27 | 40.57182 | -107.87406 | 36833 ft | 532 kts | 99° |
| 2026-05-04 19:28 | 40.56329 | -107.77745 | 36910 ft | 532 kts | 98° |
| 2026-05-04 19:28 | 40.55469 | -107.68148 | 36947 ft | 532 kts | 99° |
| 2026-05-04 19:29 | 40.54586 | -107.58487 | 36951 ft | 532 kts | 99° |
| 2026-05-04 19:29 | 40.53704 | -107.48826 | 36961 ft | 533 kts | 99° |
| 2026-05-04 19:30 | 40.52813 | -107.39155 | 36964 ft | 533 kts | 99° |
| 2026-05-04 19:30 | 40.52028 | -107.29466 | 36989 ft | 535 kts | 92° |
| 2026-05-04 19:31 | 40.52074 | -107.19680 | 36983 ft | 536 kts | 90° |
| 2026-05-04 19:31 | 40.52130 | -107.09880 | 36989 ft | 536 kts | 90° |
| 2026-05-04 19:32 | 40.52162 | -107.00079 | 36968 ft | 537 kts | 90° |
| 2026-05-04 19:32 | 40.52186 | -106.90261 | 36912 ft | 537 kts | 90° |
| 2026-05-04 19:33 | 40.52205 | -106.80525 | 36971 ft | 536 kts | 90° |
| 2026-05-04 19:33 | 40.52213 | -106.70713 | 36965 ft | 536 kts | 90° |
| 2026-05-04 19:34 | 40.52215 | -106.60909 | 36947 ft | 536 kts | 90° |
| 2026-05-04 19:34 | 40.52218 | -106.51115 | 36904 ft | 536 kts | 90° |
| 2026-05-04 19:35 | 40.52209 | -106.41314 | 36856 ft | 536 kts | 90° |
| 2026-05-04 19:35 | 40.52183 | -106.31510 | 36851 ft | 537 kts | 90° |
| 2026-05-04 19:36 | 40.52149 | -106.21690 | 36835 ft | 537 kts | 91° |
| 2026-05-04 19:36 | 40.52111 | -106.11929 | 36845 ft | 538 kts | 91° |
| 2026-05-04 19:37 | 40.52072 | -106.02088 | 36854 ft | 538 kts | 91° |
| 2026-05-04 19:37 | 40.52020 | -105.92241 | 36863 ft | 539 kts | 91° |
| 2026-05-04 19:38 | 40.51951 | -105.82397 | 36844 ft | 538 kts | 91° |
| 2026-05-04 19:38 | 40.51873 | -105.72552 | 36837 ft | 539 kts | 91° |
| 2026-05-04 19:39 | 40.51797 | -105.62685 | 36847 ft | 540 kts | 91° |
| 2026-05-04 19:39 | 40.51715 | -105.52815 | 36823 ft | 541 kts | 91° |
| 2026-05-04 19:40 | 40.51624 | -105.42940 | 36758 ft | 540 kts | 91° |
| 2026-05-04 19:40 | 40.51517 | -105.33073 | 36784 ft | 541 kts | 91° |
| 2026-05-04 19:41 | 40.51406 | -105.23246 | 36849 ft | 541 kts | 91° |
| 2026-05-04 19:41 | 40.51283 | -105.13373 | 36877 ft | 540 kts | 91° |
| 2026-05-04 19:42 | 40.51151 | -105.03489 | 36880 ft | 540 kts | 91° |
| 2026-05-04 19:42 | 40.51081 | -104.98541 | 36760 ft | 540 kts | 91° |
| 2026-05-04 19:42 | 40.51008 | -104.93606 | 36774 ft | 541 kts | 91° |
| 2026-05-04 19:43 | 40.50863 | -104.84093 | 36818 ft | 542 kts | 91° |
| 2026-05-04 19:43 | 40.50707 | -104.74180 | 36830 ft | 543 kts | 91° |
| 2026-05-04 19:44 | 40.50547 | -104.64254 | 36838 ft | 544 kts | 91° |
| 2026-05-04 19:44 | 40.50358 | -104.54302 | 36840 ft | 545 kts | 92° |
| 2026-05-04 19:45 | 40.49898 | -104.44349 | 36825 ft | 545 kts | 95° |
| 2026-05-04 19:45 | 40.49212 | -104.34493 | 36796 ft | 546 kts | 96° |
| 2026-05-04 19:46 | 40.48528 | -104.24564 | 36762 ft | 546 kts | 96° |
| 2026-05-04 19:46 | 40.47911 | -104.14627 | 36725 ft | 546 kts | 95° |
| 2026-05-04 19:47 | 40.47321 | -104.04681 | 36728 ft | 546 kts | 95° |
| 2026-05-04 19:47 | 40.46706 | -103.94741 | 36764 ft | 546 kts | 95° |
| 2026-05-04 19:48 | 40.46062 | -103.84799 | 36801 ft | 546 kts | 95° |
| 2026-05-04 19:48 | 40.45406 | -103.74859 | 36793 ft | 546 kts | 95° |
| 2026-05-04 19:49 | 40.44757 | -103.64983 | 36769 ft | 546 kts | 95° |
| 2026-05-04 19:49 | 40.44094 | -103.55052 | 36745 ft | 546 kts | 95° |
| 2026-05-04 19:50 | 40.43421 | -103.45128 | 36738 ft | 546 kts | 95° |
| 2026-05-04 19:50 | 40.42741 | -103.35201 | 36749 ft | 546 kts | 95° |
| 2026-05-04 19:51 | 40.42053 | -103.25280 | 36754 ft | 546 kts | 95° |
| 2026-05-04 19:51 | 40.41361 | -103.15358 | 36751 ft | 546 kts | 95° |
| 2026-05-04 19:52 | 40.40659 | -103.05441 | 36728 ft | 546 kts | 95° |
| 2026-05-04 19:52 | 40.39941 | -102.95534 | 36686 ft | 546 kts | 95° |
| 2026-05-04 19:53 | 40.39215 | -102.85618 | 36707 ft | 546 kts | 95° |
| 2026-05-04 19:53 | 40.38487 | -102.75700 | 36743 ft | 546 kts | 95° |
| 2026-05-04 19:54 | 40.37875 | -102.67457 | 36738 ft | 546 kts | 95° |
| 2026-05-04 19:54 | 40.37118 | -102.57537 | 36742 ft | 546 kts | 96° |
| 2026-05-04 19:55 | 40.36365 | -102.47627 | 36734 ft | 546 kts | 95° |
| 2026-05-04 19:55 | 40.35609 | -102.37711 | 36748 ft | 546 kts | 96° |
| 2026-05-04 19:56 | 40.34833 | -102.27798 | 36737 ft | 547 kts | 96° |
| 2026-05-04 19:56 | 40.34047 | -102.17882 | 36730 ft | 547 kts | 96° |
| 2026-05-04 19:57 | 40.33261 | -102.07974 | 36731 ft | 547 kts | 96° |
| 2026-05-04 19:57 | 40.32466 | -101.98059 | 36752 ft | 547 kts | 96° |
| 2026-05-04 19:58 | 40.31653 | -101.88206 | 36754 ft | 547 kts | 96° |
| 2026-05-04 19:58 | 40.30831 | -101.78284 | 36749 ft | 548 kts | 96° |
| 2026-05-04 19:59 | 40.30014 | -101.68361 | 36738 ft | 548 kts | 96° |
| 2026-05-04 19:59 | 40.29182 | -101.58430 | 36754 ft | 549 kts | 96° |
| 2026-05-04 20:00 | 40.28343 | -101.48505 | 36747 ft | 549 kts | 96° |
| 2026-05-04 20:00 | 40.27493 | -101.38567 | 36740 ft | 549 kts | 96° |
| 2026-05-04 20:01 | 40.26625 | -101.28629 | 36745 ft | 549 kts | 96° |
| 2026-05-04 20:01 | 40.25749 | -101.18698 | 36738 ft | 549 kts | 96° |
| 2026-05-04 20:02 | 40.24867 | -101.08763 | 36735 ft | 549 kts | 96° |
| 2026-05-04 20:02 | 40.23983 | -100.98836 | 36740 ft | 549 kts | 96° |
| 2026-05-04 20:03 | 40.23094 | -100.88905 | 36749 ft | 549 kts | 96° |
| 2026-05-04 20:03 | 40.22192 | -100.78977 | 36758 ft | 549 kts | 97° |
| 2026-05-04 20:04 | 40.21282 | -100.69120 | 36767 ft | 549 kts | 97° |
| 2026-05-04 20:04 | 40.20581 | -100.59190 | 36766 ft | 548 kts | 88° |
| 2026-05-04 20:05 | 40.21266 | -100.49305 | 36781 ft | 545 kts | 80° |
| 2026-05-04 20:05 | 40.22140 | -100.39463 | 36761 ft | 545 kts | 80° |
| 2026-05-04 20:06 | 40.22992 | -100.29621 | 36744 ft | 545 kts | 81° |
| 2026-05-04 20:06 | 40.23815 | -100.19831 | 36781 ft | 544 kts | 81° |
| 2026-05-04 20:07 | 40.24643 | -100.09979 | 36764 ft | 544 kts | 81° |
| 2026-05-04 20:07 | 40.25464 | -100.00137 | 36749 ft | 544 kts | 81° |
| 2026-05-04 20:08 | 40.26283 | -99.90280 | 36736 ft | 544 kts | 81° |
| 2026-05-04 20:08 | 40.27087 | -99.80445 | 36722 ft | 543 kts | 81° |
| 2026-05-04 20:09 | 40.27879 | -99.70607 | 36714 ft | 543 kts | 81° |
| 2026-05-04 20:09 | 40.28663 | -99.60779 | 36708 ft | 542 kts | 81° |
| 2026-05-04 20:10 | 40.29448 | -99.50947 | 36701 ft | 543 kts | 81° |
| 2026-05-04 20:10 | 40.30220 | -99.41123 | 36714 ft | 542 kts | 81° |
| 2026-05-04 20:11 | 40.30983 | -99.31285 | 36775 ft | 542 kts | 81° |
| 2026-05-04 20:11 | 40.31727 | -99.21537 | 36766 ft | 541 kts | 81° |
| 2026-05-04 20:12 | 40.32466 | -99.11735 | 36750 ft | 540 kts | 81° |
| 2026-05-04 20:12 | 40.33198 | -99.01951 | 36747 ft | 539 kts | 81° |
| 2026-05-04 20:13 | 40.33920 | -98.92190 | 36721 ft | 537 kts | 81° |
| 2026-05-04 20:13 | 40.34640 | -98.82440 | 36707 ft | 536 kts | 81° |
| 2026-05-04 20:14 | 40.35348 | -98.72706 | 36702 ft | 536 kts | 82° |
| 2026-05-04 20:14 | 40.36039 | -98.62984 | 36721 ft | 535 kts | 82° |
| 2026-05-04 20:15 | 40.36721 | -98.53271 | 36711 ft | 534 kts | 82° |
| 2026-05-04 20:15 | 40.37396 | -98.43635 | 36741 ft | 534 kts | 82° |
| 2026-05-04 20:16 | 40.38066 | -98.33936 | 36755 ft | 534 kts | 82° |
| 2026-05-04 20:16 | 40.38724 | -98.24245 | 36740 ft | 533 kts | 82° |
| 2026-05-04 20:17 | 40.39377 | -98.14567 | 36721 ft | 532 kts | 82° |
| 2026-05-04 20:17 | 40.40021 | -98.04885 | 36705 ft | 532 kts | 82° |
| 2026-05-04 20:18 | 40.40652 | -97.95213 | 36732 ft | 532 kts | 82° |
| 2026-05-04 20:18 | 40.41274 | -97.85545 | 36716 ft | 530 kts | 82° |
| 2026-05-04 20:19 | 40.41889 | -97.75915 | 36711 ft | 529 kts | 83° |
| 2026-05-04 20:19 | 40.42488 | -97.66356 | 36709 ft | 528 kts | 83° |
| 2026-05-04 20:20 | 40.43083 | -97.56746 | 36718 ft | 527 kts | 83° |
| 2026-05-04 20:20 | 40.43672 | -97.47167 | 36705 ft | 526 kts | 83° |
| 2026-05-04 20:21 | 40.44249 | -97.37595 | 36695 ft | 525 kts | 83° |
| 2026-05-04 20:21 | 40.45107 | -97.23268 | 36693 ft | 525 kts | 83° |
| 2026-05-04 20:22 | 40.45658 | -97.13719 | 36683 ft | 525 kts | 83° |
| 2026-05-04 20:22 | 40.46204 | -97.04163 | 36677 ft | 525 kts | 83° |
| 2026-05-04 20:23 | 40.46748 | -96.94598 | 36693 ft | 525 kts | 83° |
| 2026-05-04 20:23 | 40.47289 | -96.85039 | 36694 ft | 525 kts | 83° |
| 2026-05-04 20:24 | 40.47813 | -96.75555 | 36714 ft | 524 kts | 83° |
| 2026-05-04 20:24 | 40.48330 | -96.66021 | 36706 ft | 522 kts | 83° |
| 2026-05-04 20:25 | 40.48836 | -96.56509 | 36697 ft | 521 kts | 83° |
| 2026-05-04 20:25 | 40.49334 | -96.47016 | 36679 ft | 521 kts | 83° |
| 2026-05-04 20:26 | 40.49834 | -96.37519 | 36684 ft | 520 kts | 83° |
| 2026-05-04 20:26 | 40.50320 | -96.28033 | 36680 ft | 520 kts | 84° |
| 2026-05-04 20:27 | 40.50790 | -96.18564 | 36689 ft | 519 kts | 84° |
| 2026-05-04 20:27 | 40.51258 | -96.09100 | 36687 ft | 519 kts | 84° |
| 2026-05-04 20:28 | 40.51707 | -95.99689 | 36709 ft | 518 kts | 84° |
| 2026-05-04 20:28 | 40.52155 | -95.90242 | 36712 ft | 518 kts | 84° |
| 2026-05-04 20:29 | 40.52597 | -95.80804 | 36706 ft | 517 kts | 84° |
| 2026-05-04 20:29 | 40.53032 | -95.71373 | 36695 ft | 517 kts | 84° |
| 2026-05-04 20:30 | 40.53459 | -95.61950 | 36683 ft | 516 kts | 84° |
| 2026-05-04 20:30 | 40.53880 | -95.52534 | 36679 ft | 515 kts | 84° |
| 2026-05-04 20:31 | 40.54291 | -95.43136 | 36676 ft | 514 kts | 84° |
| 2026-05-04 20:31 | 40.54688 | -95.33745 | 36671 ft | 514 kts | 84° |
| 2026-05-04 20:32 | 40.55078 | -95.24373 | 36690 ft | 513 kts | 84° |
| 2026-05-04 20:32 | 40.55467 | -95.15001 | 36695 ft | 513 kts | 84° |
| 2026-05-04 20:33 | 40.55847 | -95.05643 | 36696 ft | 513 kts | 84° |
| 2026-05-04 20:33 | 40.56224 | -94.96342 | 36696 ft | 512 kts | 84° |
| 2026-05-04 20:34 | 40.56581 | -94.86986 | 36705 ft | 512 kts | 85° |
| 2026-05-04 20:34 | 40.56926 | -94.77645 | 36684 ft | 511 kts | 85° |
| 2026-05-04 20:35 | 40.57264 | -94.68312 | 36672 ft | 510 kts | 85° |
| 2026-05-04 20:35 | 40.57605 | -94.58980 | 36669 ft | 510 kts | 85° |
| 2026-05-04 20:36 | 40.57946 | -94.49659 | 36675 ft | 510 kts | 84° |
| 2026-05-04 20:36 | 40.58272 | -94.40412 | 36669 ft | 510 kts | 85° |
| 2026-05-04 20:37 | 40.58579 | -94.31098 | 36671 ft | 510 kts | 85° |
| 2026-05-04 20:37 | 40.58882 | -94.21785 | 36676 ft | 510 kts | 85° |
| 2026-05-04 20:38 | 40.59187 | -94.12463 | 36697 ft | 509 kts | 85° |
| 2026-05-04 20:38 | 40.59479 | -94.03173 | 36699 ft | 508 kts | 85° |
| 2026-05-04 20:39 | 40.60201 | -93.93981 | 36696 ft | 502 kts | 72° |
| 2026-05-04 20:39 | 40.61907 | -93.85082 | 36693 ft | 501 kts | 72° |
| 2026-05-04 20:40 | 40.63577 | -93.76184 | 36694 ft | 500 kts | 72° |
| 2026-05-04 20:40 | 40.65227 | -93.67292 | 36673 ft | 499 kts | 72° |
| 2026-05-04 20:41 | 40.66879 | -93.58422 | 36666 ft | 499 kts | 72° |
| 2026-05-04 20:41 | 40.68512 | -93.49606 | 36668 ft | 498 kts | 72° |
| 2026-05-04 20:42 | 40.70146 | -93.40731 | 36662 ft | 498 kts | 72° |
| 2026-05-04 20:42 | 40.71776 | -93.31853 | 36663 ft | 498 kts | 72° |
| 2026-05-04 20:43 | 40.73400 | -93.22978 | 36671 ft | 498 kts | 72° |
| 2026-05-04 20:43 | 40.75020 | -93.14089 | 36678 ft | 498 kts | 72° |
| 2026-05-04 20:44 | 40.76633 | -93.05194 | 36695 ft | 498 kts | 73° |
| 2026-05-04 20:44 | 40.78230 | -92.96302 | 36676 ft | 497 kts | 73° |
| 2026-05-04 20:45 | 40.79808 | -92.87489 | 36674 ft | 496 kts | 73° |
| 2026-05-04 20:45 | 40.81388 | -92.78632 | 36671 ft | 496 kts | 73° |
| 2026-05-04 20:46 | 40.82709 | -92.71216 | 36668 ft | 495 kts | 73° |
| 2026-05-04 20:46 | 40.84527 | -92.60927 | 36668 ft | 494 kts | 73° |
| 2026-05-04 20:47 | 40.85816 | -92.53581 | 36663 ft | 493 kts | 73° |
| 2026-05-04 20:47 | 40.87362 | -92.44757 | 36663 ft | 493 kts | 73° |
| 2026-05-04 20:48 | 40.88896 | -92.35933 | 36686 ft | 493 kts | 74° |
| 2026-05-04 20:48 | 40.90434 | -92.27110 | 36667 ft | 493 kts | 74° |
| 2026-05-04 20:49 | 40.91962 | -92.18285 | 36665 ft | 492 kts | 74° |
| 2026-05-04 20:49 | 40.93478 | -92.09483 | 36657 ft | 491 kts | 74° |
| 2026-05-04 20:50 | 40.94979 | -92.00679 | 36650 ft | 490 kts | 74° |
| 2026-05-04 20:50 | 40.96470 | -91.91880 | 36649 ft | 490 kts | 74° |
| 2026-05-04 20:51 | 40.97949 | -91.83133 | 36659 ft | 489 kts | 75° |
| 2026-05-04 20:51 | 40.99435 | -91.74340 | 36653 ft | 489 kts | 75° |
| 2026-05-04 20:52 | 41.00915 | -91.65571 | 36651 ft | 488 kts | 75° |
| 2026-05-04 20:52 | 41.02380 | -91.56788 | 36647 ft | 488 kts | 75° |
| 2026-05-04 20:53 | 41.03831 | -91.48011 | 36647 ft | 488 kts | 75° |
| 2026-05-04 20:53 | 41.05276 | -91.39233 | 36641 ft | 487 kts | 75° |
| 2026-05-04 20:54 | 41.06720 | -91.30462 | 36636 ft | 487 kts | 75° |
| 2026-05-04 20:54 | 41.08161 | -91.21686 | 36633 ft | 487 kts | 75° |
| 2026-05-04 20:55 | 41.09592 | -91.12910 | 36622 ft | 487 kts | 75° |
| 2026-05-04 20:55 | 41.10991 | -91.04182 | 36626 ft | 486 kts | 75° |
| 2026-05-04 20:56 | 41.12401 | -90.95415 | 36624 ft | 486 kts | 75° |
| 2026-05-04 20:56 | 41.13813 | -90.86646 | 36640 ft | 486 kts | 75° |
| 2026-05-04 20:57 | 41.15211 | -90.77873 | 36629 ft | 486 kts | 76° |
| 2026-05-04 20:57 | 41.16598 | -90.69107 | 36632 ft | 486 kts | 76° |
| 2026-05-04 20:58 | 41.17984 | -90.60327 | 36628 ft | 485 kts | 76° |
| 2026-05-04 20:58 | 41.19370 | -90.51552 | 36607 ft | 485 kts | 76° |
| 2026-05-04 20:59 | 41.20737 | -90.42772 | 36605 ft | 485 kts | 76° |
| 2026-05-04 20:59 | 41.22097 | -90.33994 | 36605 ft | 485 kts | 76° |
| 2026-05-04 21:00 | 41.23452 | -90.25210 | 36609 ft | 485 kts | 76° |
| 2026-05-04 21:00 | 41.24803 | -90.16415 | 36615 ft | 485 kts | 76° |
| 2026-05-04 21:01 | 41.26147 | -90.07622 | 36620 ft | 486 kts | 76° |
| 2026-05-04 21:01 | 41.27477 | -89.98879 | 36619 ft | 486 kts | 76° |
| 2026-05-04 21:02 | 41.28808 | -89.90077 | 36616 ft | 486 kts | 77° |
| 2026-05-04 21:02 | 41.30129 | -89.81270 | 36616 ft | 485 kts | 77° |
| 2026-05-04 21:03 | 41.31443 | -89.72465 | 36618 ft | 485 kts | 77° |
| 2026-05-04 21:03 | 41.32757 | -89.63646 | 36618 ft | 486 kts | 77° |
| 2026-05-04 21:04 | 41.34061 | -89.54829 | 36620 ft | 486 kts | 77° |
| 2026-05-04 21:04 | 41.35353 | -89.46007 | 36635 ft | 486 kts | 77° |
| 2026-05-04 21:05 | 41.36649 | -89.37175 | 36622 ft | 487 kts | 77° |
| 2026-05-04 21:05 | 41.37940 | -89.28324 | 36619 ft | 487 kts | 77° |
| 2026-05-04 21:06 | 41.39214 | -89.19521 | 36619 ft | 487 kts | 77° |
| 2026-05-04 21:06 | 41.40486 | -89.10648 | 36619 ft | 488 kts | 77° |
| 2026-05-04 21:07 | 41.41756 | -89.01775 | 36616 ft | 488 kts | 77° |
| 2026-05-04 21:07 | 41.43023 | -88.92885 | 36620 ft | 488 kts | 78° |
| 2026-05-04 21:08 | 41.44273 | -88.83985 | 36607 ft | 488 kts | 78° |
| 2026-05-04 21:08 | 41.45522 | -88.75092 | 36626 ft | 488 kts | 78° |
| 2026-05-04 21:09 | 41.46769 | -88.66194 | 36632 ft | 488 kts | 78° |
| 2026-05-04 21:09 | 41.48005 | -88.57293 | 36642 ft | 488 kts | 78° |
| 2026-05-04 21:10 | 41.49226 | -88.48392 | 36642 ft | 488 kts | 78° |
| 2026-05-04 21:10 | 41.50448 | -88.39488 | 36639 ft | 487 kts | 78° |
| 2026-05-04 21:11 | 41.51660 | -88.30594 | 36639 ft | 487 kts | 78° |
| 2026-05-04 21:11 | 41.52867 | -88.21700 | 36636 ft | 487 kts | 78° |
| 2026-05-04 21:12 | 41.54054 | -88.12932 | 36632 ft | 487 kts | 78° |
| 2026-05-04 21:12 | 41.55248 | -88.04030 | 36651 ft | 487 kts | 78° |
| 2026-05-04 21:13 | 41.56427 | -87.95117 | 36635 ft | 488 kts | 79° |
| 2026-05-04 21:13 | 41.57602 | -87.86174 | 36635 ft | 489 kts | 79° |
| 2026-05-04 21:14 | 41.58780 | -87.77237 | 36643 ft | 489 kts | 79° |
| 2026-05-04 21:14 | 41.59953 | -87.68287 | 36650 ft | 489 kts | 79° |
| 2026-05-04 21:15 | 41.61118 | -87.59328 | 36648 ft | 489 kts | 79° |
| 2026-05-04 21:15 | 41.62273 | -87.50374 | 36627 ft | 489 kts | 79° |
| 2026-05-04 21:16 | 41.63416 | -87.41469 | 36626 ft | 489 kts | 79° |
| 2026-05-04 21:16 | 41.64559 | -87.32523 | 36626 ft | 488 kts | 79° |
| 2026-05-04 21:17 | 41.65689 | -87.23585 | 36630 ft | 488 kts | 79° |
| 2026-05-04 21:17 | 41.66803 | -87.14630 | 36641 ft | 488 kts | 79° |
| 2026-05-04 21:18 | 41.67913 | -87.05682 | 36647 ft | 488 kts | 79° |
| 2026-05-04 21:18 | 41.69024 | -86.96734 | 36644 ft | 487 kts | 79° |
| 2026-05-04 21:19 | 41.70140 | -86.87791 | 36647 ft | 487 kts | 79° |
| 2026-05-04 21:19 | 41.71234 | -86.78847 | 36647 ft | 487 kts | 79° |
| 2026-05-04 21:20 | 41.72320 | -86.69901 | 36651 ft | 487 kts | 79° |
| 2026-05-04 21:20 | 41.73401 | -86.60941 | 36669 ft | 488 kts | 80° |
| 2026-05-04 21:21 | 41.74475 | -86.51975 | 36660 ft | 488 kts | 80° |
| 2026-05-04 21:21 | 41.75541 | -86.43058 | 36652 ft | 487 kts | 80° |
| 2026-05-04 21:22 | 41.76601 | -86.34089 | 36657 ft | 487 kts | 80° |
| 2026-05-04 21:22 | 41.77633 | -86.25119 | 36643 ft | 487 kts | 81° |
| 2026-05-04 21:23 | 41.78608 | -86.16138 | 36627 ft | 487 kts | 81° |
| 2026-05-04 21:23 | 41.79566 | -86.07157 | 36616 ft | 487 kts | 81° |
| 2026-05-04 21:24 | 41.80527 | -85.98178 | 36616 ft | 487 kts | 81° |
| 2026-05-04 21:24 | 41.81493 | -85.89198 | 36622 ft | 487 kts | 81° |
| 2026-05-04 21:25 | 41.82452 | -85.80210 | 36632 ft | 487 kts | 81° |
| 2026-05-04 21:25 | 41.83396 | -85.71277 | 36636 ft | 487 kts | 81° |
| 2026-05-04 21:26 | 41.84342 | -85.62274 | 36630 ft | 488 kts | 81° |
| 2026-05-04 21:26 | 41.85237 | -85.53715 | 36648 ft | 488 kts | 81° |
| 2026-05-04 21:27 | 41.86163 | -85.44694 | 36498 ft | 489 kts | 81° |
| 2026-05-04 21:27 | 41.86623 | -85.40187 | 36236 ft | 488 kts | 81° |
| 2026-05-04 21:27 | 41.87082 | -85.35684 | 35901 ft | 487 kts | 81° |
| 2026-05-04 21:28 | 41.87544 | -85.31148 | 34899 ft | 494 kts | 81° |
| 2026-05-04 21:28 | 41.88008 | -85.26552 | 33960 ft | 499 kts | 81° |
| 2026-05-04 21:28 | 41.88474 | -85.21912 | 32826 ft | 505 kts | 82° |
| 2026-05-04 21:28 | 41.88910 | -85.17225 | 32000 ft | 505 kts | 83° |
| 2026-05-04 21:29 | 41.89270 | -85.12573 | 31695 ft | 497 kts | 84° |
| 2026-05-04 21:29 | 41.89579 | -85.07971 | 31438 ft | 494 kts | 84° |
| 2026-05-04 21:29 | 41.89862 | -85.03388 | 31178 ft | 493 kts | 85° |
| 2026-05-04 21:29 | 41.90136 | -84.98865 | 30927 ft | 490 kts | 85° |
| 2026-05-04 21:30 | 41.90422 | -84.94333 | 30673 ft | 488 kts | 84° |
| 2026-05-04 21:30 | 41.90726 | -84.89799 | 30427 ft | 486 kts | 84° |
| 2026-05-04 21:30 | 41.91041 | -84.85292 | 30192 ft | 484 kts | 84° |
| 2026-05-04 21:30 | 41.91358 | -84.80799 | 29970 ft | 482 kts | 84° |
| 2026-05-04 21:31 | 41.91983 | -84.71811 | 29435 ft | 478 kts | 84° |
| 2026-05-04 21:31 | 41.92278 | -84.67430 | 29154 ft | 476 kts | 84° |
| 2026-05-04 21:31 | 41.92571 | -84.63014 | 28865 ft | 474 kts | 84° |
| 2026-05-04 21:32 | 41.92858 | -84.58619 | 28579 ft | 471 kts | 84° |
| 2026-05-04 21:32 | 41.93141 | -84.54241 | 28311 ft | 469 kts | 84° |
| 2026-05-04 21:32 | 41.93423 | -84.49881 | 28038 ft | 468 kts | 84° |
| 2026-05-04 21:32 | 41.93706 | -84.45540 | 27768 ft | 466 kts | 84° |
| 2026-05-04 21:33 | 41.93988 | -84.41211 | 27504 ft | 464 kts | 84° |
| 2026-05-04 21:33 | 41.94268 | -84.36898 | 27258 ft | 463 kts | 84° |
| 2026-05-04 21:33 | 41.94540 | -84.32606 | 26998 ft | 461 kts | 85° |
| 2026-05-04 21:33 | 41.94810 | -84.28323 | 26734 ft | 460 kts | 85° |
| 2026-05-04 21:34 | 41.95080 | -84.24055 | 26473 ft | 458 kts | 84° |
| 2026-05-04 21:34 | 41.95357 | -84.19798 | 26217 ft | 456 kts | 84° |
| 2026-05-04 21:34 | 41.95641 | -84.15568 | 25962 ft | 454 kts | 84° |
| 2026-05-04 21:34 | 41.95926 | -84.11346 | 25710 ft | 453 kts | 84° |
| 2026-05-04 21:35 | 41.96115 | -84.08553 | 25544 ft | 452 kts | 84° |
| 2026-05-04 21:35 | 41.96395 | -84.04349 | 25297 ft | 451 kts | 84° |
| 2026-05-04 21:35 | 41.96668 | -84.00164 | 25053 ft | 449 kts | 84° |
| 2026-05-04 21:35 | 41.96940 | -83.95989 | 24811 ft | 448 kts | 84° |
| 2026-05-04 21:36 | 41.97208 | -83.91825 | 24568 ft | 446 kts | 84° |
| 2026-05-04 21:36 | 41.97474 | -83.87677 | 24331 ft | 445 kts | 85° |
| 2026-05-04 21:36 | 41.97736 | -83.83535 | 24094 ft | 444 kts | 85° |
| 2026-05-04 21:36 | 41.97994 | -83.79411 | 23860 ft | 443 kts | 85° |
| 2026-05-04 21:37 | 41.98252 | -83.75284 | 23661 ft | 442 kts | 85° |
| 2026-05-04 21:37 | 41.98507 | -83.71178 | 23676 ft | 441 kts | 85° |
| 2026-05-04 21:37 | 41.98763 | -83.67061 | 23679 ft | 442 kts | 85° |
| 2026-05-04 21:37 | 41.99020 | -83.62946 | 23680 ft | 442 kts | 85° |
| 2026-05-04 21:38 | 41.99277 | -83.58837 | 23680 ft | 442 kts | 85° |
| 2026-05-04 21:38 | 41.99531 | -83.54725 | 23681 ft | 442 kts | 85° |
| 2026-05-04 21:38 | 41.99780 | -83.50650 | 23681 ft | 442 kts | 85° |
| 2026-05-04 21:38 | 42.00027 | -83.46535 | 23684 ft | 443 kts | 85° |
| 2026-05-04 21:39 | 42.00271 | -83.42412 | 23663 ft | 443 kts | 85° |
| 2026-05-04 21:39 | 42.00512 | -83.38282 | 23664 ft | 443 kts | 85° |
| 2026-05-04 21:39 | 42.00706 | -83.34154 | 23664 ft | 442 kts | 90° |
| 2026-05-04 21:39 | 42.00535 | -83.30036 | 23282 ft | 442 kts | 96° |
| 2026-05-04 21:40 | 42.00237 | -83.25926 | 22737 ft | 439 kts | 96° |
| 2026-05-04 21:40 | 41.99925 | -83.21862 | 22117 ft | 437 kts | 97° |
| 2026-05-04 21:40 | 41.99608 | -83.17822 | 21713 ft | 432 kts | 97° |
| 2026-05-04 21:40 | 41.99290 | -83.13803 | 21148 ft | 431 kts | 97° |
| 2026-05-04 21:41 | 41.98979 | -83.09826 | 20747 ft | 425 kts | 97° |
| 2026-05-04 21:41 | 41.98675 | -83.05894 | 20236 ft | 422 kts | 97° |
| 2026-05-04 21:41 | 41.98371 | -83.01978 | 19679 ft | 421 kts | 97° |
| 2026-05-04 21:41 | 41.98067 | -82.98083 | 19268 ft | 417 kts | 97° |
| 2026-05-04 21:42 | 41.97763 | -82.94217 | 18747 ft | 415 kts | 97° |
| 2026-05-04 21:42 | 41.97459 | -82.90372 | 18279 ft | 412 kts | 97° |
| 2026-05-04 21:42 | 41.97153 | -82.86551 | 17762 ft | 410 kts | 97° |
| 2026-05-04 21:42 | 41.96846 | -82.82758 | 17281 ft | 407 kts | 97° |
| 2026-05-04 21:43 | 41.96536 | -82.79000 | 17003 ft | 402 kts | 99° |
| 2026-05-04 21:43 | 41.95970 | -82.75389 | 16573 ft | 399 kts | 107° |
| 2026-05-04 21:43 | 41.95253 | -82.71743 | 16040 ft | 397 kts | 107° |
| 2026-05-04 21:43 | 41.94552 | -82.68218 | 15533 ft | 396 kts | 107° |
| 2026-05-04 21:44 | 41.93873 | -82.64813 | 15032 ft | 395 kts | 107° |
| 2026-05-04 21:44 | 41.93162 | -82.61261 | 14520 ft | 394 kts | 107° |
| 2026-05-04 21:44 | 41.92455 | -82.57721 | 14070 ft | 391 kts | 107° |
| 2026-05-04 21:44 | 41.91756 | -82.54198 | 13677 ft | 388 kts | 107° |
| 2026-05-04 21:45 | 41.91069 | -82.50714 | 13393 ft | 385 kts | 107° |
| 2026-05-04 21:45 | 41.90383 | -82.47245 | 13098 ft | 383 kts | 107° |
| 2026-05-04 21:45 | 41.89700 | -82.43803 | 12815 ft | 381 kts | 107° |
| 2026-05-04 21:45 | 41.89019 | -82.40375 | 12536 ft | 379 kts | 107° |
| 2026-05-04 21:46 | 41.88346 | -82.36977 | 12245 ft | 376 kts | 107° |
| 2026-05-04 21:46 | 41.87679 | -82.33592 | 11963 ft | 374 kts | 107° |
| 2026-05-04 21:46 | 41.87016 | -82.30226 | 11692 ft | 372 kts | 107° |
| 2026-05-04 21:46 | 41.86355 | -82.26881 | 11418 ft | 370 kts | 108° |
| 2026-05-04 21:47 | 41.85691 | -82.23549 | 11146 ft | 369 kts | 109° |
| 2026-05-04 21:47 | 41.84773 | -82.20375 | 10870 ft | 361 kts | 121° |
| 2026-05-04 21:47 | 41.83526 | -82.17545 | 10729 ft | 346 kts | 127° |
| 2026-05-04 21:47 | 41.82290 | -82.14853 | 10577 ft | 333 kts | 126° |
| 2026-05-04 21:48 | 41.81093 | -82.12227 | 10248 ft | 328 kts | 126° |
| 2026-05-04 21:48 | 41.79909 | -82.09632 | 9866 ft | 325 kts | 126° |
| 2026-05-04 21:48 | 41.78734 | -82.07058 | 9468 ft | 323 kts | 127° |
| 2026-05-04 21:48 | 41.77564 | -82.04500 | 9083 ft | 320 kts | 127° |
| 2026-05-04 21:49 | 41.76408 | -82.01974 | 8743 ft | 316 kts | 127° |
| 2026-05-04 21:49 | 41.75263 | -81.99476 | 8350 ft | 313 kts | 127° |
| 2026-05-04 21:49 | 41.74132 | -81.97016 | 8050 ft | 308 kts | 127° |
| 2026-05-04 21:49 | 41.73013 | -81.94589 | 7769 ft | 304 kts | 127° |
| 2026-05-04 21:50 | 41.71908 | -81.92192 | 7469 ft | 302 kts | 127° |
| 2026-05-04 21:50 | 41.70804 | -81.89816 | 7198 ft | 299 kts | 128° |
| 2026-05-04 21:50 | 41.69692 | -81.87480 | 6904 ft | 296 kts | 128° |
| 2026-05-04 21:50 | 41.68582 | -81.85170 | 6634 ft | 293 kts | 128° |
| 2026-05-04 21:51 | 41.67517 | -81.82914 | 6366 ft | 287 kts | 128° |
| 2026-05-04 21:51 | 41.66476 | -81.80675 | 6092 ft | 281 kts | 128° |
| 2026-05-04 21:51 | 41.65460 | -81.78482 | 5806 ft | 275 kts | 128° |
| 2026-05-04 21:51 | 41.64464 | -81.76361 | 5515 ft | 262 kts | 129° |
| 2026-05-04 21:52 | 41.63505 | -81.74357 | 5252 ft | 247 kts | 133° |
| 2026-05-04 21:52 | 41.62331 | -81.72799 | 4999 ft | 231 kts | 153° |
| 2026-05-04 21:52 | 41.60951 | -81.71887 | 4829 ft | 214 kts | 171° |
| 2026-05-04 21:52 | 41.59534 | -81.71465 | 4668 ft | 206 kts | 176° |
| 2026-05-04 21:53 | 41.58135 | -81.71081 | 4517 ft | 205 kts | 176° |
| 2026-05-04 21:53 | 41.56738 | -81.70696 | 4357 ft | 204 kts | 175° |
| 2026-05-04 21:53 | 41.55352 | -81.70312 | 4204 ft | 202 kts | 176° |
| 2026-05-04 21:53 | 41.53995 | -81.69977 | 4043 ft | 192 kts | 184° |
| 2026-05-04 21:54 | 41.52760 | -81.70292 | 3872 ft | 176 kts | 210° |
| 2026-05-04 21:54 | 41.51717 | -81.71089 | 3702 ft | 170 kts | 214° |
| 2026-05-04 21:54 | 41.50710 | -81.71868 | 3518 ft | 165 kts | 214° |
| 2026-05-04 21:54 | 41.49718 | -81.72633 | 3289 ft | 164 kts | 213° |
| 2026-05-04 21:55 | 41.48763 | -81.73464 | 3056 ft | 164 kts | 227° |
| 2026-05-04 21:55 | 41.48048 | -81.74636 | 2844 ft | 162 kts | 229° |
| 2026-05-04 21:55 | 41.47311 | -81.75774 | 2569 ft | 161 kts | 228° |
| 2026-05-04 21:55 | 41.46608 | -81.76876 | 2407 ft | 153 kts | 229° |
| 2026-05-04 21:56 | 41.45938 | -81.77932 | 2167 ft | 142 kts | 228° |
| 2026-05-04 21:56 | 41.45343 | -81.78874 | 1978 ft | 127 kts | 227° |
| 2026-05-04 21:56 | 41.44777 | -81.79769 | 1794 ft | 126 kts | 228° |
| 2026-05-04 21:56 | 41.44219 | -81.80652 | 1634 ft | 122 kts | 227° |
| 2026-05-04 21:57 | 41.43676 | -81.81511 | 1456 ft | 123 kts | 226° |
| 2026-05-04 21:57 | 41.43130 | -81.82375 | 1296 ft | 121 kts | 225° |
| 2026-05-04 21:57 | 41.42585 | -81.83234 | 1122 ft | 127 kts | 228° |
| 2026-05-04 21:57 | 41.42033 | -81.84122 | 928 ft | 122 kts | 227° |
| 2026-05-04 21:58 | 41.41483 | -81.84990 | 786 ft | 121 kts | 226° |
| 2026-05-04 21:58 | 41.41005 | -81.85800 | 976 ft | 114 kts | 230° |
| 2026-05-04 21:58 | 41.40500 | -81.86681 | 1583 ft | 122 kts | 231° |
| 2026-05-04 21:58 | 41.39977 | -81.87579 | 2353 ft | 120 kts | 230° |
| 2026-05-04 21:59 | 41.39437 | -81.88481 | 2862 ft | 134 kts | 229° |
| 2026-05-04 21:59 | 41.38808 | -81.89593 | 3001 ft | 169 kts | 237° |
| 2026-05-04 21:59 | 41.38453 | -81.91161 | 2995 ft | 185 kts | 258° |
| 2026-05-04 21:59 | 41.38409 | -81.92891 | 2978 ft | 186 kts | 262° |
| 2026-05-04 22:00 | 41.38292 | -81.94590 | 2993 ft | 184 kts | 256° |
| 2026-05-04 22:00 | 41.38106 | -81.96286 | 2999 ft | 186 kts | 256° |
| 2026-05-04 22:00 | 41.37973 | -81.98013 | 2997 ft | 192 kts | 269° |
| 2026-05-04 22:00 | 41.38472 | -81.99708 | 3002 ft | 208 kts | 303° |
| 2026-05-04 22:01 | 41.39744 | -82.00732 | 3004 ft | 229 kts | 343° |
| 2026-05-04 22:01 | 41.41307 | -82.00423 | 3009 ft | 241 kts | 28° |
| 2026-05-04 22:01 | 41.42633 | -81.99057 | 3008 ft | 243 kts | 44° |
| 2026-05-04 22:01 | 41.43836 | -81.97473 | 3007 ft | 243 kts | 47° |
| 2026-05-04 22:02 | 41.44975 | -81.95884 | 2999 ft | 230 kts | 47° |
| 2026-05-04 22:02 | 41.46073 | -81.94348 | 2999 ft | 228 kts | 47° |
| 2026-05-04 22:02 | 41.47173 | -81.92825 | 3008 ft | 227 kts | 47° |
| 2026-05-04 22:02 | 41.48271 | -81.91325 | 3007 ft | 226 kts | 46° |
| 2026-05-04 22:03 | 41.49375 | -81.89832 | 3014 ft | 226 kts | 45° |
| 2026-05-04 22:03 | 41.50478 | -81.88352 | 3000 ft | 223 kts | 45° |
| 2026-05-04 22:03 | 41.51571 | -81.86891 | 2991 ft | 223 kts | 45° |
| 2026-05-04 22:03 | 41.52672 | -81.85425 | 2989 ft | 224 kts | 45° |
| 2026-05-04 22:04 | 41.53746 | -81.83936 | 3001 ft | 219 kts | 53° |
| 2026-05-04 22:04 | 41.54360 | -81.82181 | 2900 ft | 205 kts | 83° |
| 2026-05-04 22:04 | 41.54322 | -81.80335 | 2636 ft | 195 kts | 112° |
| 2026-05-04 22:04 | 41.53741 | -81.78810 | 2401 ft | 182 kts | 137° |
| 2026-05-04 22:05 | 41.52832 | -81.77700 | 2141 ft | 176 kts | 149° |
| 2026-05-04 22:05 | 41.51883 | -81.76646 | 1997 ft | 175 kts | 149° |
| 2026-05-04 22:05 | 41.50955 | -81.75610 | 1987 ft | 173 kts | 149° |
| 2026-05-04 22:05 | 41.49987 | -81.74856 | 1974 ft | 153 kts | 172° |
| 2026-05-04 22:06 | 41.48960 | -81.74707 | 1985 ft | 145 kts | 191° |
| 2026-05-04 22:06 | 41.47997 | -81.75082 | 2006 ft | 145 kts | 212° |
| 2026-05-04 22:06 | 41.47261 | -81.75954 | 1999 ft | 141 kts | 228° |
| 2026-05-04 22:06 | 41.46629 | -81.76905 | 1994 ft | 134 kts | 226° |
| 2026-05-04 22:07 | 41.46027 | -81.77824 | 2001 ft | 130 kts | 227° |
| 2026-05-04 22:07 | 41.45437 | -81.78741 | 1921 ft | 129 kts | 227° |
| 2026-05-04 22:07 | 41.44860 | -81.79646 | 1785 ft | 128 kts | 227° |
| 2026-05-04 22:07 | 41.44273 | -81.80571 | 1626 ft | 131 kts | 228° |
| 2026-05-04 22:08 | 41.43693 | -81.81487 | 1458 ft | 128 kts | 227° |
| 2026-05-04 22:08 | 41.43112 | -81.82406 | 1279 ft | 131 kts | 227° |
| 2026-05-04 22:08 | 41.42508 | -81.83358 | 1095 ft | 135 kts | 229° |
| 2026-05-04 22:08 | 41.41920 | -81.84313 | 899 ft | 130 kts | 229° |
| 2026-05-04 22:09 | 41.41344 | -81.85212 | 776 ft | 125 kts | 228° |
| 2026-05-04 22:09 | 41.40856 | -81.85976 | 770 ft | 88 kts | 230° |
| 2026-05-04 22:09 | 41.40566 | -81.86434 | 766 ft | 49 kts | 229° |
| 2026-05-04 22:09 | 41.40401 | -81.86636 | 766 ft | 24 kts | 201° |
| 2026-05-04 22:10 | 41.40277 | -81.86608 | 761 ft | 17 kts | 143° |
| 2026-05-04 22:10 | 41.40186 | -81.86508 | 758 ft | 18 kts | 141° |
| 2026-05-04 22:10 | 41.40086 | -81.86397 | 758 ft | 19 kts | 139° |
| 2026-05-04 22:10 | 41.40023 | -81.86329 | 759 ft | 8 kts | 141° |
| 2026-05-04 22:11 | 41.39982 | -81.86276 | 758 ft | 9 kts | 124° |
| 2026-05-04 22:11 | 41.39999 | -81.86202 | 758 ft | 9 kts | 45° |
| 2026-05-04 22:11 | 41.40049 | -81.86127 | 758 ft | 13 kts | 51° |
| 2026-05-04 22:11 | 41.40113 | -81.86024 | 758 ft | 15 kts | 49° |
| 2026-05-04 22:12 | 41.40201 | -81.85954 | 760 ft | 15 kts | 14° |
| 2026-05-04 22:12 | 41.40303 | -81.85916 | 764 ft | 16 kts | 37° |
| 2026-05-04 22:12 | 41.40376 | -81.85806 | 765 ft | 16 kts | 50° |
| 2026-05-04 22:12 | 41.40448 | -81.85693 | 764 ft | 16 kts | 50° |
| 2026-05-04 22:13 | 41.40523 | -81.85574 | 764 ft | 17 kts | 50° |
| 2026-05-04 22:13 | 41.40599 | -81.85455 | 764 ft | 17 kts | 50° |
| 2026-05-04 22:13 | 41.40677 | -81.85329 | 763 ft | 18 kts | 50° |
| 2026-05-04 22:13 | 41.40756 | -81.85206 | 763 ft | 18 kts | 50° |
| 2026-05-04 22:14 | 41.40837 | -81.85078 | 764 ft | 18 kts | 50° |
| 2026-05-04 22:14 | 41.40918 | -81.84949 | 764 ft | 18 kts | 50° |
| 2026-05-04 22:14 | 41.41000 | -81.84820 | 764 ft | 18 kts | 49° |
| 2026-05-04 22:14 | 41.41082 | -81.84690 | 764 ft | 18 kts | 50° |
| 2026-05-04 22:15 | 41.41166 | -81.84558 | 762 ft | 19 kts | 50° |
| 2026-05-04 22:15 | 41.41251 | -81.84424 | 762 ft | 19 kts | 50° |
| 2026-05-04 22:15 | 41.41336 | -81.84287 | 761 ft | 19 kts | 50° |
| 2026-05-04 22:15 | 41.41405 | -81.84180 | 761 ft | 12 kts | 49° |
| 2026-05-04 22:16 | 41.41416 | -81.84106 | 761 ft | 9 kts | 111° |
| 2026-05-04 22:16 | 41.41368 | -81.84062 | 761 ft | 9 kts | 165° |
| 2026-05-04 22:16 | 41.41302 | -81.84047 | 761 ft | 10 kts | 171° |
| 2026-05-04 22:16 | 41.41240 | -81.84018 | 761 ft | 9 kts | 149° |
| 2026-05-04 22:17 | 41.41200 | -81.83993 | 761 ft | 1 kts | 172° |
| 2026-05-04 22:17 | 41.41189 | -81.83995 | 761 ft | 2 kts | 190° |
| 2026-05-04 22:17 | 41.41177 | -81.83999 | 761 ft | 1 kts | 192° |
| 2026-05-04 22:17 | 41.41172 | -81.84000 | 761 ft | 0 kts | 191° |